createdAt,value
2019-05-23T00:04:12.217Z,101474.76
2019-05-23T00:08:55.402Z,101473.87
2019-05-23T00:13:40.249Z,101470.84
2019-05-23T00:18:06.272Z,101470.84
2019-05-23T00:22:31.357Z,101462.38
2019-05-23T00:26:58.602Z,101461.48
2019-05-23T00:31:28.247Z,101461.25
2019-05-23T00:35:53.630Z,101465.17
2019-05-23T00:40:18.275Z,101466.88
2019-05-23T00:44:42.734Z,101461.59
2019-05-23T00:49:08.194Z,101469.33
2019-05-23T00:53:32.032Z,101468.25
2019-05-23T00:57:55.929Z,101465.41
2019-05-23T01:02:20.605Z,101470.39
2019-05-23T01:06:45.165Z,101467.40
2019-05-23T01:11:10.702Z,101470.84
2019-05-23T01:15:35.831Z,101472.98
2019-05-23T01:19:59.891Z,101467.69
2019-05-23T01:24:32.226Z,101466.20
2019-05-23T01:28:57.277Z,101465.72
2019-05-23T01:33:21.715Z,101464.17
2019-05-23T01:37:47.816Z,101465.23
2019-05-23T01:42:11.872Z,101458.08
2019-05-23T01:46:36.227Z,101453.08
2019-05-23T01:51:02.436Z,101448.08
2019-05-23T01:55:27.334Z,101449.05
2019-05-23T02:00:08.408Z,101449.21
2019-05-23T02:04:18.178Z,101443.68
2019-05-23T02:08:42.540Z,101447.79
2019-05-23T02:13:07.116Z,101441.48
2019-05-23T02:17:32.458Z,101441.48
2019-05-23T02:21:57.684Z,101431.23
2019-05-23T02:26:23.571Z,101432.20
2019-05-23T02:30:48.230Z,101437.69
2019-05-23T02:35:12.929Z,101429.27
2019-05-23T02:39:53.203Z,101425.36
2019-05-23T02:44:21.317Z,101431.74
2019-05-23T02:48:48.190Z,101430.02
2019-05-23T02:53:16.907Z,101419.48
2019-05-23T02:57:41.923Z,101416.50
2019-05-23T03:02:40.497Z,101418.08
2019-05-23T03:07:07.322Z,101412.74
2019-05-23T03:11:39.856Z,101419.77
2019-05-23T03:16:06.057Z,101412.12
2019-05-23T03:20:30.466Z,101414.84
2019-05-23T03:24:54.962Z,101414.06
2019-05-23T03:29:19.815Z,101409.13
2019-05-23T03:33:45.402Z,101408.50
2019-05-23T03:38:11.235Z,101409.66
2019-05-23T03:42:37.403Z,101409.03
2019-05-23T03:47:01.863Z,101406.58
2019-05-23T03:51:26.946Z,101402.27
2019-05-23T03:55:53.368Z,101402.72
2019-05-23T04:00:20.847Z,101398.00
2019-05-23T04:04:45.637Z,101396.22
2019-05-23T04:09:12.315Z,101389.67
2019-05-23T04:13:36.737Z,101386.92
2019-05-23T04:18:01.267Z,101389.94
2019-05-23T04:22:25.867Z,101386.48
2019-05-23T04:26:49.841Z,101387.63
2019-05-23T04:31:13.857Z,101388.41
2019-05-23T04:35:38.001Z,101381.20
2019-05-23T04:40:02.235Z,101379.55
2019-05-23T04:44:26.775Z,101377.98
2019-05-23T04:48:52.204Z,101376.41
2019-05-23T04:53:16.433Z,101376.13
2019-05-23T04:57:41.221Z,101379.67
2019-05-23T05:02:24.364Z,101385.78
2019-05-23T05:06:32.825Z,101378.51
2019-05-23T05:10:57.729Z,101381.48
2019-05-23T05:15:22.115Z,101381.51
2019-05-23T05:19:46.458Z,101376.83
2019-05-23T05:24:10.869Z,101380.07
2019-05-23T05:28:34.762Z,101382.95
2019-05-23T05:32:58.945Z,101380.41
2019-05-23T05:37:22.841Z,101377.66
2019-05-23T05:41:46.930Z,101380.44
2019-05-23T05:46:11.172Z,101386.66
2019-05-23T05:50:35.205Z,101379.39
2019-05-23T05:55:01.087Z,101387.03
2019-05-23T05:59:25.756Z,101389.14
2019-05-23T06:03:49.959Z,101387.88
2019-05-23T06:08:15.037Z,101386.16
2019-05-23T06:12:40.334Z,101396.70
2019-05-23T06:17:07.685Z,101393.91
2019-05-23T06:21:32.745Z,101400.01
2019-05-23T06:25:56.822Z,101399.06
2019-05-23T06:30:23.765Z,101402.84
2019-05-23T06:34:47.854Z,101403.55
2019-05-23T06:39:13.919Z,101411.78
2019-05-23T06:43:38.475Z,101413.55
2019-05-23T06:48:03.606Z,101419.95
2019-05-23T06:52:27.604Z,101407.83
2019-05-23T06:56:51.665Z,101402.69
2019-05-23T07:01:16.597Z,101404.66
2019-05-23T07:05:41.114Z,101408.19
2019-05-23T07:10:08.000Z,101404.59
2019-05-23T07:14:31.897Z,101404.59
2019-05-23T07:18:56.020Z,101405.09
2019-05-23T07:23:21.114Z,101414.70
2019-05-23T07:27:45.584Z,101407.14
2019-05-23T07:32:09.685Z,101410.08
2019-05-23T07:36:35.630Z,101403.80
2019-05-23T07:41:00.619Z,101404.44
2019-05-23T07:45:30.054Z,101396.24
2019-05-23T07:49:53.962Z,101401.66
2019-05-23T07:54:27.373Z,101402.02
2019-05-23T07:58:51.164Z,101405.52
2019-05-23T08:03:15.782Z,101404.52
2019-05-23T08:07:40.214Z,101399.82
2019-05-23T08:12:05.899Z,101404.77
2019-05-23T08:16:30.267Z,101399.69
2019-05-23T08:20:54.533Z,101405.63
2019-05-23T08:25:18.707Z,101399.05
2019-05-23T08:29:43.037Z,101396.33
2019-05-23T08:34:09.347Z,101403.13
2019-05-23T08:38:33.303Z,101400.19
2019-05-23T08:42:57.459Z,101400.50
2019-05-23T08:47:22.265Z,101396.67
2019-05-23T08:51:46.780Z,101393.20
2019-05-23T08:56:18.855Z,101386.95
2019-05-23T09:00:40.494Z,101379.64
2019-05-23T09:05:08.288Z,101382.75
2019-05-23T09:09:32.743Z,101387.65
2019-05-23T09:13:56.544Z,101387.99
2019-05-23T09:18:20.604Z,101380.61
2019-05-23T09:22:45.223Z,101378.33
2019-05-23T09:27:10.811Z,101375.41
2019-05-23T09:31:34.750Z,101370.30
2019-05-23T09:35:59.259Z,101368.39
2019-05-23T09:40:24.185Z,101367.66
2019-05-23T09:44:48.065Z,101365.03
2019-05-23T09:49:12.141Z,101358.48
2019-05-23T09:53:36.365Z,101361.45
2019-05-23T09:58:00.500Z,101356.36
2019-05-23T10:02:27.602Z,101358.66
2019-05-23T10:06:51.585Z,101347.99
2019-05-23T10:11:15.781Z,101346.84
2019-05-23T10:15:58.866Z,101344.46
2019-05-23T10:20:26.565Z,101340.95
2019-05-23T10:24:50.498Z,101330.43
2019-05-23T10:29:14.675Z,101332.36
2019-05-23T10:33:38.551Z,101316.82
2019-05-23T10:38:02.929Z,101326.41
2019-05-23T10:42:27.931Z,101322.43
2019-05-23T10:46:51.735Z,101313.48
2019-05-23T10:51:16.827Z,101319.53
2019-05-23T10:55:40.678Z,101306.70
2019-05-23T11:00:06.246Z,101305.41
2019-05-23T11:04:30.213Z,101300.63
2019-05-23T11:08:54.312Z,101303.84
2019-05-23T11:13:18.412Z,101277.70
2019-05-23T11:17:43.087Z,101277.70
2019-05-23T11:22:08.012Z,101275.91
2019-05-23T11:26:32.171Z,101276.91
2019-05-23T11:30:58.257Z,101271.67
2019-05-23T11:35:23.702Z,101267.52
2019-05-23T11:39:49.841Z,101264.00
2019-05-23T11:44:13.572Z,101268.70
2019-05-23T11:48:37.910Z,101254.69
2019-05-23T11:53:01.734Z,101250.15
2019-05-23T11:57:26.176Z,101259.45
2019-05-23T12:02:00.332Z,101245.30
2019-05-23T12:06:26.702Z,101242.61
2019-05-23T12:10:50.661Z,101238.82
2019-05-23T12:15:20.599Z,101240.55
2019-05-23T12:19:44.857Z,101232.93
2019-05-23T12:24:10.074Z,101230.53
2019-05-23T12:28:33.865Z,101223.11
2019-05-23T12:32:57.677Z,101231.28
2019-05-23T12:37:21.749Z,101224.15
2019-05-23T12:41:46.821Z,101224.91
2019-05-23T12:46:11.171Z,101219.05
2019-05-23T12:50:39.922Z,101213.78
2019-05-23T12:55:04.524Z,101201.33
2019-05-23T12:59:28.675Z,101189.80
2019-05-23T13:03:53.383Z,101189.80
2019-05-23T13:08:17.573Z,101198.33
2019-05-23T13:12:41.675Z,101186.14
2019-05-23T13:17:06.110Z,101178.50
2019-05-23T13:21:30.007Z,101169.00
2019-05-23T13:25:53.804Z,101171.62
2019-05-23T13:30:18.586Z,101165.01
2019-05-23T13:34:42.719Z,101171.94
2019-05-23T13:39:09.621Z,101164.84
2019-05-23T13:43:34.516Z,101159.97
2019-05-23T13:47:58.402Z,101158.14
2019-05-23T13:52:22.499Z,101161.72
2019-05-23T13:56:48.089Z,101143.19
2019-05-23T14:01:12.686Z,101141.56
2019-05-23T14:05:36.892Z,101136.90
2019-05-23T14:10:00.706Z,101141.45
2019-05-23T14:14:24.883Z,101137.05
2019-05-23T14:18:48.876Z,101139.70
2019-05-23T14:23:30.897Z,101134.45
2019-05-23T14:27:59.877Z,101127.12
2019-05-23T14:32:34.599Z,101121.39
2019-05-23T14:37:10.240Z,101121.20
2019-05-23T14:41:45.427Z,101122.89
2019-05-23T14:46:17.968Z,101118.33
2019-05-23T14:51:05.703Z,101117.52
2019-05-23T14:55:29.622Z,101117.80
2019-05-23T14:59:53.669Z,101116.64
2019-05-23T15:04:18.938Z,101108.67
2019-05-23T15:08:51.035Z,101100.75
2019-05-23T15:13:09.367Z,101100.56
2019-05-23T15:17:33.555Z,101089.58
2019-05-23T15:21:57.638Z,101091.34
2019-05-23T15:26:23.646Z,101092.83
2019-05-23T15:30:48.593Z,101082.14
2019-05-23T15:35:12.865Z,101082.97
2019-05-23T15:39:36.987Z,101084.32
2019-05-23T15:44:01.531Z,101086.73
2019-05-23T15:48:25.536Z,101082.59
2019-05-23T15:53:04.555Z,101078.52
2019-05-23T15:57:53.858Z,101079.41
2019-05-23T16:02:23.419Z,101082.00
2019-05-23T16:06:47.687Z,101073.94
2019-05-23T16:11:12.339Z,101066.67
2019-05-23T16:15:36.367Z,101072.02
2019-05-23T16:20:00.444Z,101067.02
2019-05-23T16:24:24.624Z,101059.08
2019-05-23T16:28:48.745Z,101060.56
2019-05-23T16:33:12.920Z,101069.03
2019-05-23T16:37:36.799Z,101067.73
2019-05-23T16:42:00.927Z,101063.13
2019-05-23T16:46:25.191Z,101062.50
2019-05-23T16:50:49.097Z,101064.70
2019-05-23T16:55:19.409Z,101065.22
2019-05-23T17:00:01.872Z,101063.77
2019-05-23T17:05:09.104Z,101062.31
2019-05-23T17:09:40.019Z,101060.82
2019-05-23T17:14:28.804Z,101065.02
2019-05-23T17:18:58.243Z,101062.11
2019-05-23T17:23:39.749Z,101051.78
2019-05-23T17:28:08.958Z,101047.49
2019-05-23T17:32:35.165Z,101050.65
2019-05-23T17:36:59.284Z,101048.09
2019-05-23T17:41:23.981Z,101042.08
2019-05-23T17:45:49.578Z,101050.59
2019-05-23T17:50:13.801Z,101044.84
2019-05-23T17:54:37.642Z,101044.36
2019-05-23T17:59:01.780Z,101039.23
2019-05-23T18:03:26.546Z,101042.77
2019-05-23T18:07:50.386Z,101042.77
2019-05-23T18:12:14.690Z,101044.95
2019-05-23T18:16:38.983Z,101044.60
2019-05-23T18:21:04.331Z,101044.60
2019-05-23T18:25:29.291Z,101053.59
2019-05-23T18:29:53.368Z,101053.59
2019-05-23T18:34:17.625Z,101051.10
2019-05-23T18:38:41.568Z,101057.84
2019-05-23T18:43:06.228Z,101057.84
2019-05-23T18:47:36.704Z,101065.09
2019-05-23T18:52:00.658Z,101065.64
2019-05-23T18:56:24.860Z,101065.64
2019-05-23T19:01:04.218Z,101076.64
2019-05-23T19:05:28.800Z,101071.72
2019-05-23T19:09:53.751Z,101071.72
2019-05-23T19:14:18.004Z,101075.50
2019-05-23T19:18:42.343Z,101084.89
2019-05-23T19:23:07.976Z,101084.89
2019-05-23T19:27:32.285Z,101087.10
2019-05-23T19:31:56.497Z,101093.33
2019-05-23T19:36:21.513Z,101098.61
2019-05-23T19:40:45.620Z,101104.66
2019-05-23T19:45:09.908Z,101100.96
2019-05-23T19:49:34.102Z,101100.96
2019-05-23T19:53:57.993Z,101109.12
2019-05-23T19:58:22.070Z,101110.87
2019-05-23T20:02:52.755Z,101102.61
2019-05-23T20:07:17.077Z,101105.53
2019-05-23T20:11:53.807Z,101115.03
2019-05-23T20:16:08.082Z,101114.16
2019-05-23T20:20:32.984Z,101107.84
2019-05-23T20:24:57.758Z,101112.60
2019-05-23T20:29:21.819Z,101112.81
2019-05-23T20:33:45.628Z,101115.55
2019-05-23T20:38:10.015Z,101116.64
2019-05-23T20:42:33.912Z,101108.40
2019-05-23T20:46:57.902Z,101118.89
2019-05-23T20:51:22.260Z,101118.80
2019-05-23T20:55:46.435Z,101114.34
2019-05-23T21:00:12.488Z,101114.83
2019-05-23T21:04:36.584Z,101112.76
2019-05-23T21:09:00.655Z,101102.88
2019-05-23T21:13:25.002Z,101099.95
2019-05-23T21:17:49.009Z,101098.75
2019-05-23T21:22:12.925Z,101083.15
2019-05-23T21:26:37.072Z,101083.15
2019-05-23T21:31:01.912Z,101086.55
2019-05-23T21:35:25.809Z,101090.53
2019-05-23T21:39:49.638Z,101087.44
2019-05-23T21:44:13.931Z,101090.27
2019-05-23T21:48:38.126Z,101089.20
2019-05-23T21:53:01.963Z,101081.42
2019-05-23T21:57:26.059Z,101080.00
2019-05-23T22:01:59.194Z,101076.03
2019-05-23T22:06:27.168Z,101077.11
2019-05-23T22:10:51.260Z,101080.08
2019-05-23T22:15:19.883Z,101078.13
2019-05-23T22:19:43.859Z,101078.13
2019-05-23T22:24:09.016Z,101068.80
2019-05-23T22:28:32.904Z,101065.41
2019-05-23T22:32:57.271Z,101069.88
2019-05-23T22:37:26.855Z,101074.61
2019-05-23T22:41:50.759Z,101072.94
2019-05-23T22:46:15.072Z,101071.21
2019-05-23T22:50:38.918Z,101075.45
2019-05-23T22:55:02.748Z,101075.45
2019-05-23T22:59:26.590Z,101076.86
2019-05-23T23:03:50.745Z,101071.58
2019-05-23T23:08:15.151Z,101071.18
2019-05-23T23:12:38.961Z,101077.98
2019-05-23T23:17:02.976Z,101074.83
2019-05-23T23:21:27.168Z,101069.35
2019-05-23T23:25:51.261Z,101063.96
2019-05-23T23:30:17.539Z,101059.97
2019-05-23T23:34:41.503Z,101063.03
2019-05-23T23:39:07.506Z,101059.03
2019-05-23T23:43:31.746Z,101062.55
2019-05-23T23:48:13.490Z,101059.48
2019-05-23T23:52:55.111Z,101053.94
2019-05-23T23:57:36.452Z,101058.53
